createdAt,value
2017-10-07T00:00:24.801Z,21.72
2017-10-07T00:01:05.254Z,21.63
2017-10-07T00:01:45.706Z,21.69
2017-10-07T00:02:26.154Z,21.59
2017-10-07T00:03:06.603Z,21.63
2017-10-07T00:03:47.089Z,21.72
2017-10-07T00:04:27.544Z,21.63
2017-10-07T00:05:08.004Z,21.66
2017-10-07T00:05:48.466Z,21.62
2017-10-07T00:06:28.924Z,21.72
2017-10-07T00:07:09.378Z,21.66
2017-10-07T00:07:49.821Z,21.63
2017-10-07T00:08:30.269Z,21.74
2017-10-07T00:09:10.723Z,21.6
2017-10-07T00:09:51.176Z,21.66
2017-10-07T00:10:31.619Z,21.63
2017-10-07T00:11:12.064Z,21.62
2017-10-07T00:11:52.518Z,21.5
2017-10-07T00:12:32.976Z,21.59
2017-10-07T00:13:13.442Z,21.63
2017-10-07T00:13:53.900Z,21.69
2017-10-07T00:14:34.359Z,21.62
2017-10-07T00:15:14.817Z,21.6
2017-10-07T00:15:55.268Z,21.62
2017-10-07T00:16:35.736Z,21.59
2017-10-07T00:17:16.190Z,21.62
2017-10-07T00:17:56.649Z,21.53
2017-10-07T00:18:37.102Z,21.56
2017-10-07T00:19:17.557Z,21.65
2017-10-07T00:19:58.017Z,21.63
2017-10-07T00:20:38.456Z,21.62
2017-10-07T00:21:18.917Z,21.58
2017-10-07T00:21:59.368Z,21.56
2017-10-07T00:22:39.814Z,21.63
2017-10-07T00:23:20.266Z,21.65
2017-10-07T00:24:00.722Z,21.6
2017-10-07T00:24:41.171Z,21.65
2017-10-07T00:25:21.628Z,21.69
2017-10-07T00:26:02.085Z,21.63
2017-10-07T00:26:42.535Z,21.58
2017-10-07T00:27:22.994Z,21.58
2017-10-07T00:28:03.452Z,21.6
2017-10-07T00:28:43.902Z,21.65
2017-10-07T00:29:24.359Z,21.63
2017-10-07T00:30:04.806Z,21.66
2017-10-07T00:30:45.266Z,21.65
2017-10-07T00:31:25.727Z,21.66
2017-10-07T00:32:06.194Z,21.66
2017-10-07T00:32:46.643Z,21.63
2017-10-07T00:33:27.096Z,21.68
2017-10-07T00:34:07.539Z,21.62
2017-10-07T00:34:47.991Z,21.68
2017-10-07T00:35:28.434Z,21.68
2017-10-07T00:36:08.884Z,21.65
2017-10-07T00:36:49.336Z,21.65
2017-10-07T00:37:29.797Z,21.69
2017-10-07T00:38:10.259Z,21.65
2017-10-07T00:38:50.714Z,21.63
2017-10-07T00:39:31.189Z,21.63
2017-10-07T00:40:11.645Z,21.66
2017-10-07T00:40:52.092Z,21.69
2017-10-07T00:41:32.554Z,21.62
2017-10-07T00:42:13.001Z,21.69
2017-10-07T00:42:53.462Z,21.69
2017-10-07T00:43:33.920Z,21.66
2017-10-07T00:44:14.371Z,21.75
2017-10-07T00:44:54.827Z,21.69
2017-10-07T00:45:35.274Z,21.66
2017-10-07T00:46:15.726Z,21.65
2017-10-07T00:46:56.175Z,21.69
2017-10-07T00:47:36.670Z,21.62
2017-10-07T00:48:17.126Z,21.69
2017-10-07T00:48:57.574Z,21.59
2017-10-07T00:49:38.037Z,21.65
2017-10-07T00:50:18.492Z,21.75
2017-10-07T00:50:58.941Z,21.62
2017-10-07T00:51:39.392Z,21.6
2017-10-07T00:52:19.854Z,21.65
2017-10-07T00:53:00.302Z,21.69
2017-10-07T00:53:40.758Z,21.56
2017-10-07T00:54:21.209Z,21.65
2017-10-07T00:55:01.669Z,21.56
2017-10-07T00:55:42.124Z,21.63
2017-10-07T00:56:22.580Z,21.63
2017-10-07T00:57:03.037Z,21.75
2017-10-07T00:57:43.492Z,21.6
2017-10-07T00:58:23.948Z,21.7
2017-10-07T00:59:04.405Z,21.59
2017-10-07T00:59:44.875Z,21.6
2017-10-07T01:00:25.327Z,21.63
2017-10-07T01:01:05.780Z,21.62
2017-10-07T01:01:46.229Z,21.65
2017-10-07T01:02:26.684Z,21.63
2017-10-07T01:03:07.142Z,21.63
2017-10-07T01:03:47.595Z,21.59
2017-10-07T01:04:28.049Z,21.63
2017-10-07T01:05:08.511Z,21.63
2017-10-07T01:05:48.973Z,21.63
2017-10-07T01:06:29.426Z,21.66
2017-10-07T01:07:09.889Z,21.7
2017-10-07T01:07:50.346Z,21.6
2017-10-07T01:08:30.806Z,21.62
2017-10-07T01:09:11.263Z,21.65
2017-10-07T01:09:51.721Z,21.66
2017-10-07T01:10:32.176Z,21.68
2017-10-07T01:11:12.629Z,21.68
2017-10-07T01:11:53.088Z,21.66
2017-10-07T01:12:33.543Z,21.66
2017-10-07T01:13:14.008Z,21.65
2017-10-07T01:13:54.471Z,21.58
2017-10-07T01:14:34.935Z,21.59
2017-10-07T01:15:15.395Z,21.6
2017-10-07T01:15:55.839Z,21.69
2017-10-07T01:16:36.296Z,21.65
2017-10-07T01:17:16.777Z,21.69
2017-10-07T01:17:57.209Z,21.7
2017-10-07T01:18:37.837Z,21.68
2017-10-07T01:19:18.286Z,21.63
2017-10-07T01:19:58.747Z,21.63
2017-10-07T01:20:39.211Z,21.63
2017-10-07T01:21:19.664Z,21.66
2017-10-07T01:22:00.129Z,21.69
2017-10-07T01:22:40.584Z,21.72
2017-10-07T01:23:21.034Z,21.69
2017-10-07T01:24:01.486Z,21.74
2017-10-07T01:24:41.940Z,21.75
2017-10-07T01:25:22.402Z,21.72
2017-10-07T01:26:02.862Z,21.72
2017-10-07T01:26:43.335Z,21.66
2017-10-07T01:27:23.788Z,21.7
2017-10-07T01:28:04.238Z,21.69
2017-10-07T01:28:44.705Z,21.75
2017-10-07T01:29:25.173Z,21.72
2017-10-07T01:30:05.632Z,21.63
2017-10-07T01:30:46.085Z,21.66
2017-10-07T01:31:26.542Z,21.65
2017-10-07T01:32:07.001Z,21.66
2017-10-07T01:32:47.455Z,21.69
2017-10-07T01:33:27.914Z,21.75
2017-10-07T01:34:08.370Z,21.66
2017-10-07T01:34:48.830Z,21.68
2017-10-07T01:35:29.293Z,21.69
2017-10-07T01:36:09.752Z,21.7
2017-10-07T01:36:50.210Z,21.72
2017-10-07T01:37:30.663Z,21.74
2017-10-07T01:38:11.124Z,21.68
2017-10-07T01:38:51.582Z,21.78
2017-10-07T01:39:32.039Z,21.75
2017-10-07T01:40:12.499Z,21.75
2017-10-07T01:40:52.961Z,21.75
2017-10-07T01:41:33.399Z,21.78
2017-10-07T01:42:13.866Z,21.78
2017-10-07T01:42:54.322Z,21.74
2017-10-07T01:43:34.778Z,21.74
2017-10-07T01:44:15.237Z,21.78
2017-10-07T01:44:55.684Z,21.77
2017-10-07T01:45:36.137Z,21.75
2017-10-07T01:46:16.583Z,21.77
2017-10-07T01:46:57.042Z,21.77
2017-10-07T01:47:37.504Z,21.77
2017-10-07T01:48:17.953Z,21.77
2017-10-07T01:48:58.408Z,21.78
2017-10-07T01:49:38.863Z,21.75
2017-10-07T01:50:19.331Z,21.7
2017-10-07T01:50:59.780Z,21.75
2017-10-07T01:51:40.246Z,21.77
2017-10-07T01:52:20.702Z,21.75
2017-10-07T01:53:01.164Z,21.7
2017-10-07T01:53:41.624Z,21.68
2017-10-07T01:54:22.080Z,21.68
2017-10-07T01:55:02.537Z,21.65
2017-10-07T01:55:42.999Z,21.74
2017-10-07T01:56:23.449Z,21.66
2017-10-07T01:57:03.904Z,21.65
2017-10-07T01:57:44.350Z,21.78
2017-10-07T01:58:24.812Z,21.66
2017-10-07T01:59:05.267Z,21.62
2017-10-07T01:59:45.722Z,21.66
2017-10-07T02:00:26.178Z,21.62
2017-10-07T02:01:06.629Z,21.72
2017-10-07T02:01:47.087Z,21.66
2017-10-07T02:02:27.546Z,21.7
2017-10-07T02:03:08.004Z,21.69
2017-10-07T02:03:48.463Z,21.69
2017-10-07T02:04:28.919Z,21.63
2017-10-07T02:05:09.371Z,21.66
2017-10-07T02:05:49.825Z,21.68
2017-10-07T02:06:30.280Z,21.63
2017-10-07T02:07:10.737Z,21.62
2017-10-07T02:07:51.189Z,21.62
2017-10-07T02:08:31.634Z,21.59
2017-10-07T02:09:12.104Z,21.58
2017-10-07T02:09:52.551Z,21.66
2017-10-07T02:10:33.005Z,21.68
2017-10-07T02:11:13.462Z,21.63
2017-10-07T02:11:53.919Z,21.7
2017-10-07T02:12:34.377Z,21.63
2017-10-07T02:13:14.836Z,21.68
2017-10-07T02:13:55.291Z,21.68
2017-10-07T02:14:35.745Z,21.68
2017-10-07T02:15:16.204Z,21.6
2017-10-07T02:15:56.664Z,21.63
2017-10-07T02:16:37.122Z,21.66
2017-10-07T02:17:17.568Z,21.65
2017-10-07T02:17:58.033Z,21.63
2017-10-07T02:18:38.489Z,21.65
2017-10-07T02:19:18.942Z,21.65
2017-10-07T02:19:59.397Z,21.66
2017-10-07T02:20:39.850Z,21.68
2017-10-07T02:21:20.307Z,21.65
2017-10-07T02:22:00.763Z,21.66
2017-10-07T02:22:41.207Z,21.69
2017-10-07T02:23:21.667Z,21.66
2017-10-07T02:24:02.121Z,21.65
2017-10-07T02:24:42.575Z,21.63
2017-10-07T02:25:23.041Z,21.62
2017-10-07T02:26:03.487Z,21.66
2017-10-07T02:26:43.935Z,21.62
2017-10-07T02:27:24.396Z,21.62
2017-10-07T02:28:04.869Z,21.65
2017-10-07T02:28:45.305Z,21.63
2017-10-07T02:29:25.761Z,21.72
2017-10-07T02:30:06.217Z,21.65
2017-10-07T02:30:46.670Z,21.66
2017-10-07T02:31:27.129Z,21.66
2017-10-07T02:32:07.586Z,21.66
2017-10-07T02:32:48.044Z,21.7
2017-10-07T02:33:28.505Z,21.68
2017-10-07T02:34:08.957Z,21.68
2017-10-07T02:34:49.418Z,21.68
2017-10-07T02:35:29.867Z,21.72
2017-10-07T02:36:10.331Z,21.7
2017-10-07T02:36:50.780Z,21.66
2017-10-07T02:37:31.234Z,21.78
2017-10-07T02:38:11.682Z,21.75
2017-10-07T02:38:52.136Z,21.75
2017-10-07T02:39:32.587Z,21.75
2017-10-07T02:40:13.034Z,21.68
2017-10-07T02:40:53.495Z,21.7
2017-10-07T02:41:33.956Z,21.6
2017-10-07T02:42:14.415Z,21.68
2017-10-07T02:42:54.871Z,21.65
2017-10-07T02:43:35.322Z,21.74
2017-10-07T02:44:15.773Z,21.74
2017-10-07T02:44:56.237Z,21.7
2017-10-07T02:45:36.682Z,21.72
2017-10-07T02:46:17.134Z,21.68
2017-10-07T02:46:57.599Z,21.7
2017-10-07T02:47:38.056Z,21.72
2017-10-07T02:48:18.510Z,21.72
2017-10-07T02:48:58.963Z,21.62
2017-10-07T02:49:39.424Z,21.68
2017-10-07T02:50:19.878Z,21.66
2017-10-07T02:51:00.342Z,21.69
2017-10-07T02:51:40.801Z,21.75
2017-10-07T02:52:21.257Z,21.75
2017-10-07T02:53:01.777Z,21.77
2017-10-07T02:53:42.234Z,21.68
2017-10-07T02:54:22.686Z,21.7
2017-10-07T02:55:03.152Z,21.81
2017-10-07T02:55:43.607Z,21.69
2017-10-07T02:56:24.066Z,21.66
2017-10-07T02:57:04.523Z,21.66
2017-10-07T02:57:44.981Z,21.7
2017-10-07T02:58:25.441Z,21.75
2017-10-07T02:59:05.899Z,21.72
2017-10-07T02:59:46.352Z,21.66
2017-10-07T03:00:26.808Z,21.74
2017-10-07T03:01:07.265Z,21.7
2017-10-07T03:01:47.727Z,21.69
2017-10-07T03:02:28.177Z,21.69
2017-10-07T03:03:08.639Z,21.75
2017-10-07T03:03:49.098Z,21.69
2017-10-07T03:04:29.560Z,21.65
2017-10-07T03:05:10.018Z,21.66
2017-10-07T03:05:50.475Z,21.66
2017-10-07T03:06:30.932Z,21.66
2017-10-07T03:07:11.387Z,21.66
2017-10-07T03:07:51.845Z,21.65
2017-10-07T03:08:32.298Z,21.66
2017-10-07T03:09:12.749Z,21.62
2017-10-07T03:09:53.208Z,21.59
2017-10-07T03:10:33.662Z,21.62
2017-10-07T03:11:14.119Z,21.62
2017-10-07T03:11:54.574Z,21.59
2017-10-07T03:12:35.034Z,21.59
2017-10-07T03:13:15.485Z,21.7
2017-10-07T03:13:55.940Z,21.6
2017-10-07T03:14:36.396Z,21.62
2017-10-07T03:15:16.854Z,21.7
2017-10-07T03:15:57.308Z,21.63
2017-10-07T03:16:37.763Z,21.62
2017-10-07T03:17:18.220Z,21.6
2017-10-07T03:17:58.679Z,21.62
2017-10-07T03:18:39.135Z,21.62
2017-10-07T03:19:19.590Z,21.62
2017-10-07T03:20:00.043Z,21.63
2017-10-07T03:20:40.518Z,21.56
2017-10-07T03:21:20.976Z,21.58
2017-10-07T03:22:01.425Z,21.63
2017-10-07T03:22:41.873Z,21.68
2017-10-07T03:23:22.323Z,21.63
2017-10-07T03:24:02.781Z,21.65
2017-10-07T03:24:43.240Z,21.69
2017-10-07T03:25:23.700Z,21.6
2017-10-07T03:26:04.160Z,21.68
2017-10-07T03:26:44.613Z,21.62
2017-10-07T03:27:25.065Z,21.63
2017-10-07T03:28:05.527Z,21.66
2017-10-07T03:28:45.975Z,21.65
2017-10-07T03:29:26.427Z,21.62
2017-10-07T03:30:06.892Z,21.63
2017-10-07T03:30:47.349Z,21.6
2017-10-07T03:31:27.803Z,21.68
2017-10-07T03:32:08.242Z,21.65
2017-10-07T03:32:48.685Z,21.62
2017-10-07T03:33:29.142Z,21.6
2017-10-07T03:34:09.596Z,21.66
2017-10-07T03:34:50.052Z,21.63
2017-10-07T03:35:30.507Z,21.65
2017-10-07T03:36:10.959Z,21.68
2017-10-07T03:36:51.411Z,21.62
2017-10-07T03:37:31.865Z,21.63
2017-10-07T03:38:12.321Z,21.59
2017-10-07T03:38:52.780Z,21.63
2017-10-07T03:39:33.234Z,21.62
2017-10-07T03:40:13.690Z,21.66
2017-10-07T03:40:54.149Z,21.63
2017-10-07T03:41:34.612Z,21.62
2017-10-07T03:42:15.051Z,21.66
2017-10-07T03:42:55.502Z,21.63
2017-10-07T03:43:35.956Z,21.63
2017-10-07T03:44:16.409Z,21.63
2017-10-07T03:44:56.841Z,21.51
2017-10-07T03:45:37.300Z,21.62
2017-10-07T03:46:17.753Z,21.63
2017-10-07T03:46:58.214Z,21.53
2017-10-07T03:47:38.666Z,21.51
2017-10-07T03:48:19.119Z,21.48
2017-10-07T03:48:59.579Z,21.68
2017-10-07T03:49:40.035Z,21.53
2017-10-07T03:50:20.492Z,21.59
2017-10-07T03:51:00.946Z,21.65
2017-10-07T03:51:41.404Z,21.59
2017-10-07T03:52:21.869Z,21.6
2017-10-07T03:53:02.328Z,21.5
2017-10-07T03:53:42.788Z,21.56
2017-10-07T03:54:23.240Z,21.54
2017-10-07T03:55:03.698Z,21.51
2017-10-07T03:55:44.143Z,21.5
2017-10-07T03:56:24.597Z,21.54
2017-10-07T03:57:05.047Z,21.54
2017-10-07T03:57:45.506Z,21.59
2017-10-07T03:58:26.637Z,21.53
2017-10-07T03:59:07.093Z,21.51
2017-10-07T03:59:47.540Z,21.54
2017-10-07T04:00:28.002Z,21.56
2017-10-07T04:01:08.460Z,21.51
2017-10-07T04:01:48.895Z,21.53
2017-10-07T04:02:29.345Z,21.66
2017-10-07T04:03:09.804Z,21.62
2017-10-07T04:03:50.260Z,21.7
2017-10-07T04:04:30.717Z,21.6
2017-10-07T04:05:11.162Z,21.62
2017-10-07T04:05:51.612Z,21.62
2017-10-07T04:06:32.054Z,21.65
2017-10-07T04:07:12.519Z,21.66
2017-10-07T04:07:52.980Z,21.63
2017-10-07T04:08:33.429Z,21.69
2017-10-07T04:09:13.885Z,21.74
2017-10-07T04:09:54.347Z,21.77
2017-10-07T04:10:34.803Z,21.69
2017-10-07T04:11:15.262Z,21.72
2017-10-07T04:11:55.721Z,21.7
2017-10-07T04:12:36.168Z,21.77
2017-10-07T04:13:16.714Z,21.78
2017-10-07T04:13:57.168Z,21.74
2017-10-07T04:14:37.629Z,21.77
2017-10-07T04:15:18.084Z,21.72
2017-10-07T04:15:59.978Z,21.77
2017-10-07T04:16:40.418Z,21.75
2017-10-07T04:17:20.886Z,21.81
2017-10-07T04:18:01.350Z,21.83
2017-10-07T04:18:41.802Z,21.83
2017-10-07T04:19:22.261Z,21.85
2017-10-07T04:20:02.722Z,21.89
2017-10-07T04:20:43.164Z,21.85
2017-10-07T04:21:23.617Z,21.88
2017-10-07T04:22:04.077Z,21.84
2017-10-07T04:22:44.523Z,21.91
2017-10-07T04:23:24.978Z,21.89
2017-10-07T04:24:05.436Z,21.91
2017-10-07T04:24:45.896Z,21.94
2017-10-07T04:25:26.343Z,21.99
2017-10-07T04:26:06.804Z,21.92
2017-10-07T04:26:47.261Z,21.99
2017-10-07T04:27:27.714Z,21.99
2017-10-07T04:28:08.167Z,22
2017-10-07T04:28:48.621Z,21.99
2017-10-07T04:29:29.075Z,22.01
2017-10-07T04:30:09.525Z,22
2017-10-07T04:30:49.988Z,21.94
2017-10-07T04:31:30.477Z,22.04
2017-10-07T04:32:10.946Z,22.01
2017-10-07T04:32:51.415Z,21.96
2017-10-07T04:33:31.877Z,22
2017-10-07T04:34:12.331Z,22.01
2017-10-07T04:34:52.791Z,22.03
2017-10-07T04:35:33.260Z,22
2017-10-07T04:36:13.710Z,22.06
2017-10-07T04:36:54.167Z,22
2017-10-07T04:37:34.622Z,22.01
2017-10-07T04:38:15.082Z,22
2017-10-07T04:38:55.536Z,21.99
2017-10-07T04:39:35.984Z,22.04
2017-10-07T04:40:16.432Z,22.04
2017-10-07T04:40:56.900Z,22.1
2017-10-07T04:41:37.337Z,22.04
2017-10-07T04:42:17.791Z,22.04
2017-10-07T04:42:58.261Z,22.01
2017-10-07T04:43:38.723Z,22
2017-10-07T04:44:19.171Z,22.03
2017-10-07T04:44:59.627Z,21.99
2017-10-07T04:45:40.100Z,22.12
2017-10-07T04:46:20.544Z,22.07
2017-10-07T04:47:00.999Z,22.03
2017-10-07T04:47:41.446Z,22.03
2017-10-07T04:48:21.901Z,22
2017-10-07T04:49:02.358Z,22.01
2017-10-07T04:49:42.814Z,22.04
2017-10-07T04:50:23.272Z,22.04
2017-10-07T04:51:03.724Z,22.06
2017-10-07T04:51:44.176Z,22.08
2017-10-07T04:52:24.631Z,22.07
2017-10-07T04:53:05.085Z,22
2017-10-07T04:53:45.539Z,22.01
2017-10-07T04:54:25.991Z,21.99
2017-10-07T04:55:06.449Z,22
2017-10-07T04:55:46.910Z,22.04
2017-10-07T04:56:27.366Z,22.03
2017-10-07T04:57:07.818Z,21.99
2017-10-07T04:57:48.282Z,21.97
2017-10-07T04:58:28.713Z,21.96
2017-10-07T04:59:09.172Z,21.99
2017-10-07T04:59:49.627Z,22
2017-10-07T05:00:30.076Z,22.01
2017-10-07T05:01:10.527Z,22.04
2017-10-07T05:01:50.982Z,22
2017-10-07T05:02:31.430Z,21.99
2017-10-07T05:03:11.885Z,21.96
2017-10-07T05:03:52.347Z,21.96
2017-10-07T05:04:32.803Z,21.96
2017-10-07T05:05:13.265Z,22
2017-10-07T05:05:53.723Z,21.92
2017-10-07T05:06:34.182Z,21.92
2017-10-07T05:07:14.634Z,21.97
2017-10-07T05:07:55.122Z,21.99
2017-10-07T05:08:35.586Z,21.96
2017-10-07T05:09:16.047Z,21.99
2017-10-07T05:09:56.500Z,21.97
2017-10-07T05:10:36.940Z,21.97
2017-10-07T05:11:17.375Z,21.97
2017-10-07T05:11:57.825Z,21.96
2017-10-07T05:12:38.282Z,21.94
2017-10-07T05:13:18.735Z,21.92
2017-10-07T05:13:59.186Z,21.91
2017-10-07T05:14:39.643Z,21.88
2017-10-07T05:15:20.101Z,21.97
2017-10-07T05:16:00.555Z,21.96
2017-10-07T05:16:41.045Z,21.92
2017-10-07T05:17:21.473Z,21.88
2017-10-07T05:18:01.931Z,21.88
2017-10-07T05:18:42.383Z,21.89
2017-10-07T05:19:22.849Z,21.89
2017-10-07T05:20:03.306Z,21.88
2017-10-07T05:20:43.761Z,21.85
2017-10-07T05:21:24.226Z,21.85
2017-10-07T05:22:04.692Z,21.96
2017-10-07T05:22:45.150Z,21.83
2017-10-07T05:23:25.607Z,21.84
2017-10-07T05:24:06.068Z,21.92
2017-10-07T05:24:46.521Z,21.88
2017-10-07T05:25:26.998Z,21.91
2017-10-07T05:26:07.461Z,21.91
2017-10-07T05:26:47.916Z,21.83
2017-10-07T05:27:28.370Z,21.89
2017-10-07T05:28:08.832Z,21.85
2017-10-07T05:28:49.288Z,21.85
2017-10-07T05:29:29.743Z,21.85
2017-10-07T05:30:10.208Z,21.89
2017-10-07T05:30:50.660Z,21.91
2017-10-07T05:31:31.110Z,21.83
2017-10-07T05:32:11.555Z,21.88
2017-10-07T05:32:52.003Z,21.83
2017-10-07T05:33:32.484Z,21.89
2017-10-07T05:34:12.934Z,21.89
2017-10-07T05:34:53.407Z,21.89
2017-10-07T05:35:33.862Z,21.89
2017-10-07T05:36:14.322Z,21.85
2017-10-07T05:36:54.783Z,21.85
2017-10-07T05:37:35.246Z,21.89
2017-10-07T05:38:15.702Z,21.89
2017-10-07T05:38:56.156Z,21.85
2017-10-07T05:39:36.603Z,21.84
2017-10-07T05:40:17.061Z,21.84
2017-10-07T05:40:57.512Z,21.88
2017-10-07T05:41:37.968Z,21.85
2017-10-07T05:42:18.415Z,21.92
2017-10-07T05:42:58.859Z,21.88
2017-10-07T05:43:39.311Z,21.89
2017-10-07T05:44:19.762Z,21.88
2017-10-07T05:45:00.220Z,21.89
2017-10-07T05:45:40.701Z,21.89
2017-10-07T05:46:21.162Z,21.94
2017-10-07T05:47:01.610Z,21.91
2017-10-07T05:47:42.064Z,21.92
2017-10-07T05:48:22.512Z,21.94
2017-10-07T05:49:02.954Z,21.91
2017-10-07T05:49:43.400Z,21.92
2017-10-07T05:50:23.856Z,21.92
2017-10-07T05:51:04.312Z,21.89
2017-10-07T05:51:44.759Z,22
2017-10-07T05:52:25.225Z,21.89
2017-10-07T05:53:05.680Z,21.89
2017-10-07T05:53:46.135Z,21.92
2017-10-07T05:54:26.583Z,21.94
2017-10-07T05:55:07.015Z,21.91
2017-10-07T05:55:47.471Z,21.91
2017-10-07T05:56:27.930Z,21.89
2017-10-07T05:57:08.379Z,21.91
2017-10-07T05:57:48.837Z,21.92
2017-10-07T05:58:29.294Z,21.91
2017-10-07T05:59:09.746Z,21.81
2017-10-07T05:59:50.194Z,21.94
2017-10-07T06:00:30.668Z,21.88
2017-10-07T06:01:11.096Z,21.97
2017-10-07T06:01:51.554Z,21.97
2017-10-07T06:02:32.003Z,21.88
2017-10-07T06:03:12.479Z,21.97
2017-10-07T06:03:52.937Z,21.96
2017-10-07T06:04:33.417Z,21.94
2017-10-07T06:05:13.874Z,21.96
2017-10-07T06:05:54.351Z,21.99
2017-10-07T06:06:34.827Z,21.99
2017-10-07T06:07:15.273Z,21.99
2017-10-07T06:07:55.725Z,21.97
2017-10-07T06:08:36.174Z,22
2017-10-07T06:09:16.628Z,21.96
2017-10-07T06:09:57.080Z,21.97
2017-10-07T06:10:37.530Z,21.96
2017-10-07T06:11:17.981Z,22
2017-10-07T06:11:58.418Z,22
2017-10-07T06:12:38.872Z,22.06
2017-10-07T06:13:19.327Z,22
2017-10-07T06:13:59.780Z,22
2017-10-07T06:14:40.230Z,21.99
2017-10-07T06:15:20.669Z,22.01
2017-10-07T06:16:01.131Z,21.94
2017-10-07T06:16:41.588Z,21.97
2017-10-07T06:17:22.046Z,22
2017-10-07T06:18:02.505Z,22.06
2017-10-07T06:18:42.953Z,22.12
2017-10-07T06:19:23.417Z,22.08
2017-10-07T06:20:03.875Z,22.08
2017-10-07T06:20:44.330Z,22.18
2017-10-07T06:21:24.794Z,22.18
2017-10-07T06:22:05.261Z,22.18
2017-10-07T06:22:45.702Z,22.19
2017-10-07T06:23:26.160Z,22.18
2017-10-07T06:24:06.617Z,22.22
2017-10-07T06:24:47.073Z,22.22
2017-10-07T06:25:27.528Z,22.16
2017-10-07T06:26:07.996Z,22.22
2017-10-07T06:26:48.431Z,22.23
2017-10-07T06:27:28.895Z,22.22
2017-10-07T06:28:09.358Z,22.21
2017-10-07T06:28:49.808Z,22.19
2017-10-07T06:29:30.263Z,22.3
2017-10-07T06:30:10.716Z,22.25
2017-10-07T06:30:51.171Z,22.19
2017-10-07T06:31:31.624Z,22.22
2017-10-07T06:32:12.072Z,22.19
2017-10-07T06:32:52.532Z,22.21
2017-10-07T06:33:32.982Z,22.22
2017-10-07T06:34:13.447Z,22.23
2017-10-07T06:34:53.908Z,22.25
2017-10-07T06:35:34.370Z,22.19
2017-10-07T06:36:14.834Z,22.23
2017-10-07T06:36:55.283Z,22.15
2017-10-07T06:37:35.736Z,22.21
2017-10-07T06:38:16.189Z,22.22
2017-10-07T06:38:56.654Z,22.16
2017-10-07T06:39:37.128Z,22.23
2017-10-07T06:40:17.586Z,22.18
2017-10-07T06:40:58.025Z,22.21
2017-10-07T06:41:38.479Z,22.08
2017-10-07T06:42:18.929Z,22.03
2017-10-07T06:42:59.387Z,21.83
2017-10-07T06:43:39.859Z,21.81
2017-10-07T06:44:20.312Z,21.74
2017-10-07T06:45:00.758Z,21.75
2017-10-07T06:45:41.202Z,21.75
2017-10-07T06:46:21.657Z,21.7
2017-10-07T06:47:02.109Z,21.77
2017-10-07T06:48:59.822Z,21.81
2017-10-07T06:49:40.285Z,21.78
2017-10-07T06:50:20.737Z,21.8
2017-10-07T06:51:01.185Z,21.8
2017-10-07T06:51:41.647Z,21.85
2017-10-07T06:52:22.102Z,21.92
2017-10-07T06:53:02.557Z,21.84
2017-10-07T06:53:43.158Z,21.94
2017-10-07T06:54:23.611Z,21.97
2017-10-07T06:55:04.055Z,21.97
2017-10-07T06:55:44.490Z,21.97
2017-10-07T06:56:24.948Z,22.1
2017-10-07T06:57:05.379Z,22.08
2017-10-07T06:57:45.800Z,22.1
2017-10-07T06:58:26.249Z,22.1
2017-10-07T06:59:06.694Z,22.04
2017-10-07T06:59:47.146Z,22.12
2017-10-07T07:00:27.594Z,22.12
2017-10-07T07:01:08.025Z,22.22
2017-10-07T07:01:48.478Z,22.23
2017-10-07T07:02:28.928Z,22.18
2017-10-07T07:03:09.387Z,22.18
2017-10-07T07:03:49.838Z,22.25
2017-10-07T07:04:30.288Z,22.26
2017-10-07T07:05:10.750Z,22.28
2017-10-07T07:05:51.183Z,22.34
2017-10-07T07:06:31.642Z,22.25
2017-10-07T07:07:12.089Z,22.36
2017-10-07T07:07:52.552Z,22.43
2017-10-07T07:08:33.002Z,22.37
2017-10-07T07:09:13.459Z,22.41
2017-10-07T07:09:53.910Z,22.41
2017-10-07T07:10:34.355Z,22.38
2017-10-07T07:11:14.812Z,22.41
2017-10-07T07:11:55.307Z,22.38
2017-10-07T07:12:35.743Z,22.51
2017-10-07T07:13:16.227Z,22.53
2017-10-07T07:13:56.654Z,22.51
2017-10-07T07:14:37.108Z,22.51
2017-10-07T07:15:17.566Z,22.56
2017-10-07T07:15:58.022Z,22.58
2017-10-07T07:16:38.468Z,22.55
2017-10-07T07:17:18.917Z,22.46
2017-10-07T07:17:59.384Z,22.46
2017-10-07T07:18:39.832Z,22.46
2017-10-07T07:19:20.288Z,22.52
2017-10-07T07:20:01.019Z,22.51
2017-10-07T07:20:41.506Z,22.63
2017-10-07T07:21:22.134Z,22.52
2017-10-07T07:22:02.588Z,22.51
2017-10-07T07:22:43.039Z,22.59
2017-10-07T07:23:24.477Z,22.58
2017-10-07T07:24:04.950Z,22.61
2017-10-07T07:24:45.428Z,22.62
2017-10-07T07:25:25.852Z,22.63
2017-10-07T07:26:06.299Z,22.65
2017-10-07T07:26:46.741Z,22.63
2017-10-07T07:27:27.198Z,22.58
2017-10-07T07:28:07.646Z,22.62
2017-10-07T07:28:48.070Z,22.59
2017-10-07T07:29:28.550Z,22.59
2017-10-07T07:30:09.008Z,22.68
2017-10-07T07:30:49.497Z,22.59
2017-10-07T07:31:29.961Z,22.62
2017-10-07T07:32:10.406Z,22.67
2017-10-07T07:32:50.858Z,22.59
2017-10-07T07:33:31.309Z,22.76
2017-10-07T07:34:11.754Z,22.71
2017-10-07T07:34:52.187Z,22.62
2017-10-07T07:35:32.650Z,22.71
2017-10-07T07:36:13.098Z,22.74
2017-10-07T07:36:53.541Z,22.74
2017-10-07T07:37:33.990Z,22.61
2017-10-07T07:38:14.492Z,22.65
2017-10-07T07:38:54.871Z,22.74
2017-10-07T07:39:35.337Z,22.74
2017-10-07T07:40:15.780Z,22.74
2017-10-07T07:40:56.228Z,22.73
2017-10-07T07:41:36.689Z,22.78
2017-10-07T07:42:17.139Z,22.83
2017-10-07T07:42:57.597Z,22.86
2017-10-07T07:43:38.170Z,22.8
2017-10-07T07:44:18.631Z,22.78
2017-10-07T07:44:59.059Z,22.77
2017-10-07T07:45:39.629Z,22.84
2017-10-07T07:46:20.352Z,22.8
2017-10-07T07:47:00.811Z,22.81
2017-10-07T07:47:41.265Z,22.78
2017-10-07T07:48:21.776Z,22.81
2017-10-07T07:49:02.239Z,22.88
2017-10-07T07:49:42.696Z,22.77
2017-10-07T07:50:23.170Z,22.84
2017-10-07T07:51:03.604Z,22.81
2017-10-07T07:51:44.057Z,22.86
2017-10-07T07:52:24.529Z,22.86
2017-10-07T07:53:05.514Z,22.93
2017-10-07T07:53:45.977Z,22.89
2017-10-07T07:54:26.427Z,22.96
2017-10-07T07:55:06.987Z,22.93
2017-10-07T07:55:47.311Z,22.98
2017-10-07T07:56:27.694Z,23.07
2017-10-07T07:57:08.097Z,22.98
2017-10-07T07:57:48.537Z,23.07
2017-10-07T07:58:28.921Z,23.06
2017-10-07T07:59:09.709Z,23.16
2017-10-07T07:59:49.997Z,23.13
2017-10-07T08:00:30.434Z,23.25
2017-10-07T08:01:10.890Z,23.32
2017-10-07T08:01:51.325Z,23.28
2017-10-07T08:02:31.776Z,23.32
2017-10-07T08:03:12.227Z,23.37
2017-10-07T08:03:52.692Z,23.45
2017-10-07T08:04:33.140Z,23.47
2017-10-07T08:05:13.634Z,23.56
2017-10-07T08:05:54.124Z,23.69
2017-10-07T08:06:34.582Z,23.7
2017-10-07T08:07:15.027Z,23.76
2017-10-07T08:07:55.479Z,23.7
2017-10-07T08:08:35.936Z,23.76
2017-10-07T08:09:16.384Z,23.66
2017-10-07T08:09:56.839Z,23.84
2017-10-07T08:10:37.291Z,23.74
2017-10-07T08:11:17.753Z,23.76
2017-10-07T08:11:58.210Z,23.76
2017-10-07T08:12:38.678Z,23.82
2017-10-07T08:13:19.141Z,23.79
2017-10-07T08:13:59.570Z,23.82
2017-10-07T08:14:40.031Z,23.77
2017-10-07T08:15:20.480Z,23.85
2017-10-07T08:16:00.928Z,23.88
2017-10-07T08:16:41.374Z,23.86
2017-10-07T08:17:21.826Z,23.94
2017-10-07T08:18:02.276Z,23.91
2017-10-07T08:18:42.731Z,23.92
2017-10-07T08:19:23.184Z,23.95
2017-10-07T08:20:03.629Z,23.92
2017-10-07T08:20:44.086Z,23.94
2017-10-07T08:21:24.536Z,23.92
2017-10-07T08:22:04.991Z,23.92
2017-10-07T08:22:45.440Z,23.94
2017-10-07T08:23:25.891Z,24.01
2017-10-07T08:24:06.347Z,24.06
2017-10-07T08:24:46.799Z,24.07
2017-10-07T08:25:27.253Z,24.04
2017-10-07T08:26:07.706Z,24.09
2017-10-07T08:26:48.174Z,24.1
2017-10-07T08:27:28.615Z,24.14
2017-10-07T08:28:09.068Z,24.13
2017-10-07T08:28:49.514Z,24.1
2017-10-07T08:29:29.970Z,24.18
2017-10-07T08:30:10.434Z,24.11
2017-10-07T08:30:50.888Z,24.1
2017-10-07T08:31:31.349Z,24.11
2017-10-07T08:32:11.808Z,24.16
2017-10-07T08:32:52.263Z,24.16
2017-10-07T08:33:32.724Z,24.14
2017-10-07T08:34:13.192Z,24.11
2017-10-07T08:34:53.646Z,24.11
2017-10-07T08:35:34.104Z,24.11
2017-10-07T08:36:14.551Z,24.06
2017-10-07T08:36:55.011Z,24.07
2017-10-07T08:37:35.488Z,24.07
2017-10-07T08:38:15.947Z,23.96
2017-10-07T08:38:56.389Z,23.94
2017-10-07T08:39:36.840Z,23.92
2017-10-07T08:40:17.293Z,23.92
2017-10-07T08:40:57.741Z,23.86
2017-10-07T08:41:38.189Z,23.94
2017-10-07T08:42:18.666Z,23.96
2017-10-07T08:42:59.125Z,23.95
2017-10-07T08:43:39.573Z,23.91
2017-10-07T08:44:20.031Z,23.95
2017-10-07T08:45:00.553Z,23.84